sensor_id;sensor_type;location;lat;lon;timestamp;temperature;humidity
18126;DHT22;53956;52.442;13.284;2023-02-28T00:02:26;6.30;91.00
18126;DHT22;53956;52.442;13.284;2023-02-28T00:04:52;6.20;90.20
18126;DHT22;53956;52.442;13.284;2023-02-28T00:07:26;6.00;89.00
18126;DHT22;53956;52.442;13.284;2023-02-28T00:09:53;6.00;90.30
18126;DHT22;53956;52.442;13.284;2023-02-28T00:12:19;6.00;90.90
18126;DHT22;53956;52.442;13.284;2023-02-28T00:14:46;6.20;90.40
18126;DHT22;53956;52.442;13.284;2023-02-28T00:17:14;6.10;90.10
18126;DHT22;53956;52.442;13.284;2023-02-28T00:19:43;6.00;90.70
18126;DHT22;53956;52.442;13.284;2023-02-28T00:22:09;6.00;89.20
18126;DHT22;53956;52.442;13.284;2023-02-28T00:24:37;6.10;90.20
18126;DHT22;53956;52.442;13.284;2023-02-28T00:27:03;6.20;90.40
18126;DHT22;53956;52.442;13.284;2023-02-28T00:29:30;6.10;89.20
18126;DHT22;53956;52.442;13.284;2023-02-28T00:31:56;6.00;89.30
18126;DHT22;53956;52.442;13.284;2023-02-28T00:34:24;6.00;89.50
18126;DHT22;53956;52.442;13.284;2023-02-28T00:36:52;6.20;89.10
18126;DHT22;53956;52.442;13.284;2023-02-28T00:39:19;6.20;90.10
18126;DHT22;53956;52.442;13.284;2023-02-28T00:41:45;6.00;90.50
18126;DHT22;53956;52.442;13.284;2023-02-28T00:44:13;6.10;90.40
18126;DHT22;53956;52.442;13.284;2023-02-28T00:46:39;6.00;88.80
18126;DHT22;53956;52.442;13.284;2023-02-28T00:49:06;5.90;89.70
18126;DHT22;53956;52.442;13.284;2023-02-28T00:51:36;5.90;89.70
18126;DHT22;53956;52.442;13.284;2023-02-28T00:54:03;6.00;90.00
18126;DHT22;53956;52.442;13.284;2023-02-28T00:56:29;6.10;89.10
18126;DHT22;53956;52.442;13.284;2023-02-28T00:58:56;5.90;89.80
18126;DHT22;53956;52.442;13.284;2023-02-28T01:01:23;5.90;90.10
18126;DHT22;53956;52.442;13.284;2023-02-28T01:03:50;6.00;89.70
18126;DHT22;53956;52.442;13.284;2023-02-28T01:06:16;6.10;91.40
18126;DHT22;53956;52.442;13.284;2023-02-28T01:08:44;6.10;91.10
18126;DHT22;53956;52.442;13.284;2023-02-28T01:11:13;6.00;89.70
18126;DHT22;53956;52.442;13.284;2023-02-28T01:13:41;6.10;90.40
18126;DHT22;53956;52.442;13.284;2023-02-28T01:16:08;6.20;89.70
18126;DHT22;53956;52.442;13.284;2023-02-28T01:18:35;6.00;90.00
18126;DHT22;53956;52.442;13.284;2023-02-28T01:21:03;5.90;90.20
18126;DHT22;53956;52.442;13.284;2023-02-28T01:23:30;6.00;89.60
18126;DHT22;53956;52.442;13.284;2023-02-28T01:26:04;6.10;90.10
18126;DHT22;53956;52.442;13.284;2023-02-28T01:28:30;6.00;89.80
18126;DHT22;53956;52.442;13.284;2023-02-28T01:30:57;6.00;90.60
18126;DHT22;53956;52.442;13.284;2023-02-28T01:33:25;6.00;90.70
18126;DHT22;53956;52.442;13.284;2023-02-28T01:35:57;6.00;90.60
18126;DHT22;53956;52.442;13.284;2023-02-28T01:38:24;5.90;90.00
18126;DHT22;53956;52.442;13.284;2023-02-28T01:40:53;5.90;90.20
18126;DHT22;53956;52.442;13.284;2023-02-28T01:43:23;6.00;89.50
18126;DHT22;53956;52.442;13.284;2023-02-28T01:45:52;5.80;89.80
18126;DHT22;53956;52.442;13.284;2023-02-28T01:48:21;5.80;91.10
18126;DHT22;53956;52.442;13.284;2023-02-28T01:50:48;5.80;90.80
18126;DHT22;53956;52.442;13.284;2023-02-28T01:53:18;5.70;90.70
18126;DHT22;53956;52.442;13.284;2023-02-28T01:55:48;5.90;90.30
18126;DHT22;53956;52.442;13.284;2023-02-28T01:58:16;5.90;91.30
18126;DHT22;53956;52.442;13.284;2023-02-28T02:00:44;5.90;91.40
18126;DHT22;53956;52.442;13.284;2023-02-28T02:03:13;5.70;90.10
18126;DHT22;53956;52.442;13.284;2023-02-28T02:05:45;5.80;91.00
18126;DHT22;53956;52.442;13.284;2023-02-28T02:08:16;5.70;90.80
18126;DHT22;53956;52.442;13.284;2023-02-28T02:10:45;5.70;91.60
18126;DHT22;53956;52.442;13.284;2023-02-28T02:13:29;5.60;90.20
18126;DHT22;53956;52.442;13.284;2023-02-28T02:16:06;5.60;90.80
18126;DHT22;53956;52.442;13.284;2023-02-28T02:18:40;5.60;91.00
18126;DHT22;53956;52.442;13.284;2023-02-28T02:21:41;5.60;91.40
18126;DHT22;53956;52.442;13.284;2023-02-28T02:24:41;5.50;91.30
18126;DHT22;53956;52.442;13.284;2023-02-28T02:27:33;5.60;91.80
18126;DHT22;53956;52.442;13.284;2023-02-28T02:33:23;5.50;91.90
18126;DHT22;53956;52.442;13.284;2023-02-28T02:35:54;5.50;91.70
18126;DHT22;53956;52.442;13.284;2023-02-28T02:38:32;5.60;91.90
18126;DHT22;53956;52.442;13.284;2023-02-28T02:41:08;5.40;91.70
18126;DHT22;53956;52.442;13.284;2023-02-28T02:43:40;5.30;91.20
18126;DHT22;53956;52.442;13.284;2023-02-28T02:46:13;5.40;91.50
18126;DHT22;53956;52.442;13.284;2023-02-28T02:48:45;5.30;91.80
18126;DHT22;53956;52.442;13.284;2023-02-28T02:51:16;5.30;91.90
18126;DHT22;53956;52.442;13.284;2023-02-28T02:53:48;5.20;91.60
18126;DHT22;53956;52.442;13.284;2023-02-28T02:56:19;5.00;91.80
18126;DHT22;53956;52.442;13.284;2023-02-28T02:58:49;5.20;92.50
18126;DHT22;53956;52.442;13.284;2023-02-28T03:01:21;5.10;92.70
18126;DHT22;53956;52.442;13.284;2023-02-28T03:03:54;5.10;92.40
18126;DHT22;53956;52.442;13.284;2023-02-28T03:06:23;5.20;92.10
18126;DHT22;53956;52.442;13.284;2023-02-28T03:08:50;5.10;92.80
18126;DHT22;53956;52.442;13.284;2023-02-28T03:11:17;5.30;92.90
18126;DHT22;53956;52.442;13.284;2023-02-28T03:13:59;5.10;92.70
18126;DHT22;53956;52.442;13.284;2023-02-28T03:16:33;5.00;92.60
18126;DHT22;53956;52.442;13.284;2023-02-28T03:19:21;4.90;92.10
18126;DHT22;53956;52.442;13.284;2023-02-28T03:22:00;5.10;91.80
18126;DHT22;53956;52.442;13.284;2023-02-28T03:24:33;4.90;92.20
18126;DHT22;53956;52.442;13.284;2023-02-28T03:27:07;5.00;92.40
18126;DHT22;53956;52.442;13.284;2023-02-28T03:29:39;4.90;92.40
18126;DHT22;53956;52.442;13.284;2023-02-28T03:32:11;4.80;92.70
18126;DHT22;53956;52.442;13.284;2023-02-28T03:34:48;5.10;92.10
18126;DHT22;53956;52.442;13.284;2023-02-28T03:37:20;5.00;92.50
18126;DHT22;53956;52.442;13.284;2023-02-28T03:39:53;5.00;92.20
18126;DHT22;53956;52.442;13.284;2023-02-28T03:42:23;4.90;92.40
18126;DHT22;53956;52.442;13.284;2023-02-28T03:44:55;4.70;93.00
18126;DHT22;53956;52.442;13.284;2023-02-28T03:47:25;4.70;93.10
18126;DHT22;53956;52.442;13.284;2023-02-28T03:49:56;4.80;93.70
18126;DHT22;53956;52.442;13.284;2023-02-28T03:52:27;4.90;93.70
18126;DHT22;53956;52.442;13.284;2023-02-28T03:55:00;4.90;93.50
18126;DHT22;53956;52.442;13.284;2023-02-28T03:57:36;4.90;93.20
18126;DHT22;53956;52.442;13.284;2023-02-28T04:00:07;4.70;92.80
18126;DHT22;53956;52.442;13.284;2023-02-28T04:02:39;4.80;93.40
18126;DHT22;53956;52.442;13.284;2023-02-28T04:05:07;4.90;93.90
18126;DHT22;53956;52.442;13.284;2023-02-28T04:07:35;4.60;93.50
18126;DHT22;53956;52.442;13.284;2023-02-28T04:10:03;4.90;93.50
18126;DHT22;53956;52.442;13.284;2023-02-28T04:12:30;4.70;93.60
18126;DHT22;53956;52.442;13.284;2023-02-28T04:14:56;5.10;93.40
18126;DHT22;53956;52.442;13.284;2023-02-28T04:17:23;4.70;93.50
18126;DHT22;53956;52.442;13.284;2023-02-28T04:19:50;4.80;93.80
18126;DHT22;53956;52.442;13.284;2023-02-28T04:22:16;4.70;93.70
18126;DHT22;53956;52.442;13.284;2023-02-28T04:24:45;4.70;93.70
18126;DHT22;53956;52.442;13.284;2023-02-28T04:27:11;4.70;94.10
18126;DHT22;53956;52.442;13.284;2023-02-28T04:29:38;4.60;94.20
18126;DHT22;53956;52.442;13.284;2023-02-28T04:32:05;4.60;94.50
18126;DHT22;53956;52.442;13.284;2023-02-28T04:34:32;4.80;94.70
18126;DHT22;53956;52.442;13.284;2023-02-28T04:36:59;4.70;94.00
18126;DHT22;53956;52.442;13.284;2023-02-28T04:39:26;4.60;93.40
18126;DHT22;53956;52.442;13.284;2023-02-28T04:41:54;4.70;94.10
18126;DHT22;53956;52.442;13.284;2023-02-28T04:44:21;4.70;93.70
18126;DHT22;53956;52.442;13.284;2023-02-28T04:46:48;4.40;94.40
18126;DHT22;53956;52.442;13.284;2023-02-28T04:49:15;4.70;93.60
18126;DHT22;53956;52.442;13.284;2023-02-28T04:51:42;4.60;93.60
18126;DHT22;53956;52.442;13.284;2023-02-28T04:54:09;4.70;93.70
18126;DHT22;53956;52.442;13.284;2023-02-28T04:56:35;4.60;93.30
18126;DHT22;53956;52.442;13.284;2023-02-28T04:59:03;4.50;93.30
18126;DHT22;53956;52.442;13.284;2023-02-28T05:01:33;4.50;94.50
18126;DHT22;53956;52.442;13.284;2023-02-28T05:04:01;4.50;94.40
18126;DHT22;53956;52.442;13.284;2023-02-28T05:06:31;4.60;93.80
18126;DHT22;53956;52.442;13.284;2023-02-28T05:08:58;4.60;94.70
18126;DHT22;53956;52.442;13.284;2023-02-28T05:11:26;4.50;94.50
18126;DHT22;53956;52.442;13.284;2023-02-28T05:13:55;4.50;94.20
18126;DHT22;53956;52.442;13.284;2023-02-28T05:16:23;4.40;94.50
18126;DHT22;53956;52.442;13.284;2023-02-28T05:18:50;4.30;94.40
18126;DHT22;53956;52.442;13.284;2023-02-28T05:21:29;4.30;94.60
18126;DHT22;53956;52.442;13.284;2023-02-28T05:23:58;4.30;94.50
18126;DHT22;53956;52.442;13.284;2023-02-28T05:26:26;4.40;94.50
18126;DHT22;53956;52.442;13.284;2023-02-28T05:28:53;4.30;94.70
18126;DHT22;53956;52.442;13.284;2023-02-28T05:31:20;4.50;95.00
18126;DHT22;53956;52.442;13.284;2023-02-28T05:33:48;4.50;95.00
18126;DHT22;53956;52.442;13.284;2023-02-28T05:36:15;4.50;94.60
18126;DHT22;53956;52.442;13.284;2023-02-28T05:38:41;4.40;94.90
18126;DHT22;53956;52.442;13.284;2023-02-28T05:41:10;4.40;95.20
18126;DHT22;53956;52.442;13.284;2023-02-28T05:43:37;4.40;94.80
18126;DHT22;53956;52.442;13.284;2023-02-28T05:46:04;4.40;94.90
18126;DHT22;53956;52.442;13.284;2023-02-28T05:48:32;4.50;95.40
18126;DHT22;53956;52.442;13.284;2023-02-28T05:51:00;4.50;95.10
18126;DHT22;53956;52.442;13.284;2023-02-28T05:53:28;4.30;95.50
18126;DHT22;53956;52.442;13.284;2023-02-28T05:55:55;4.30;95.40
18126;DHT22;53956;52.442;13.284;2023-02-28T05:58:22;4.40;95.50
18126;DHT22;53956;52.442;13.284;2023-02-28T06:00:51;4.40;95.80
18126;DHT22;53956;52.442;13.284;2023-02-28T06:03:17;4.40;95.70
18126;DHT22;53956;52.442;13.284;2023-02-28T06:05:44;4.60;96.00
18126;DHT22;53956;52.442;13.284;2023-02-28T06:08:12;4.40;95.90
18126;DHT22;53956;52.442;13.284;2023-02-28T06:10:39;4.30;95.70
18126;DHT22;53956;52.442;13.284;2023-02-28T06:13:05;4.30;95.80
18126;DHT22;53956;52.442;13.284;2023-02-28T06:15:32;4.40;96.10
18126;DHT22;53956;52.442;13.284;2023-02-28T06:17:59;4.30;95.50
18126;DHT22;53956;52.442;13.284;2023-02-28T06:20:27;4.50;94.90
18126;DHT22;53956;52.442;13.284;2023-02-28T06:22:55;4.70;95.30
18126;DHT22;53956;52.442;13.284;2023-02-28T06:25:25;4.60;95.40
18126;DHT22;53956;52.442;13.284;2023-02-28T06:27:52;4.80;95.00
18126;DHT22;53956;52.442;13.284;2023-02-28T06:30:19;4.60;94.20
18126;DHT22;53956;52.442;13.284;2023-02-28T06:32:52;4.60;94.30
18126;DHT22;53956;52.442;13.284;2023-02-28T06:35:19;5.10;92.80
18126;DHT22;53956;52.442;13.284;2023-02-28T06:37:46;5.20;92.70
18126;DHT22;53956;52.442;13.284;2023-02-28T06:40:13;5.10;92.90
18126;DHT22;53956;52.442;13.284;2023-02-28T06:42:41;5.10;92.70
18126;DHT22;53956;52.442;13.284;2023-02-28T06:45:09;5.10;92.90
18126;DHT22;53956;52.442;13.284;2023-02-28T06:47:37;5.20;92.90
18126;DHT22;53956;52.442;13.284;2023-02-28T06:50:05;5.40;92.20
18126;DHT22;53956;52.442;13.284;2023-02-28T06:52:32;5.30;92.00
18126;DHT22;53956;52.442;13.284;2023-02-28T06:55:02;5.40;91.80
18126;DHT22;53956;52.442;13.284;2023-02-28T06:57:29;5.60;91.40
18126;DHT22;53956;52.442;13.284;2023-02-28T06:59:59;6.10;89.80
18126;DHT22;53956;52.442;13.284;2023-02-28T07:02:26;6.20;88.80
18126;DHT22;53956;52.442;13.284;2023-02-28T07:04:53;7.20;86.70
18126;DHT22;53956;52.442;13.284;2023-02-28T07:07:20;8.30;84.40
18126;DHT22;53956;52.442;13.284;2023-02-28T07:09:46;9.10;81.00
18126;DHT22;53956;52.442;13.284;2023-02-28T07:12:13;10.00;78.90
18126;DHT22;53956;52.442;13.284;2023-02-28T07:14:40;10.80;75.50
18126;DHT22;53956;52.442;13.284;2023-02-28T07:17:08;11.30;73.20
18126;DHT22;53956;52.442;13.284;2023-02-28T07:19:37;11.90;70.50
18126;DHT22;53956;52.442;13.284;2023-02-28T07:22:04;12.50;69.50
18126;DHT22;53956;52.442;13.284;2023-02-28T07:24:31;13.00;67.10
18126;DHT22;53956;52.442;13.284;2023-02-28T07:26:58;13.30;65.90
18126;DHT22;53956;52.442;13.284;2023-02-28T07:29:26;13.90;64.70
18126;DHT22;53956;52.442;13.284;2023-02-28T07:31:53;14.10;63.50
18126;DHT22;53956;52.442;13.284;2023-02-28T07:34:21;14.10;63.40
18126;DHT22;53956;52.442;13.284;2023-02-28T07:36:48;14.50;62.30
18126;DHT22;53956;52.442;13.284;2023-02-28T07:39:19;14.40;61.20
18126;DHT22;53956;52.442;13.284;2023-02-28T07:41:45;14.80;60.50
18126;DHT22;53956;52.442;13.284;2023-02-28T07:44:12;14.90;59.10
18126;DHT22;53956;52.442;13.284;2023-02-28T07:46:39;15.30;58.30
18126;DHT22;53956;52.442;13.284;2023-02-28T07:49:06;15.30;57.80
18126;DHT22;53956;52.442;13.284;2023-02-28T07:51:34;15.20;56.90
18126;DHT22;53956;52.442;13.284;2023-02-28T07:54:01;14.90;57.90
18126;DHT22;53956;52.442;13.284;2023-02-28T07:56:27;15.00;56.20
18126;DHT22;53956;52.442;13.284;2023-02-28T07:58:54;14.90;55.30
18126;DHT22;53956;52.442;13.284;2023-02-28T08:01:21;15.10;55.70
18126;DHT22;53956;52.442;13.284;2023-02-28T08:03:47;15.10;55.20
18126;DHT22;53956;52.442;13.284;2023-02-28T08:06:20;15.10;54.10
18126;DHT22;53956;52.442;13.284;2023-02-28T08:08:49;14.90;53.30
18126;DHT22;53956;52.442;13.284;2023-02-28T08:11:17;14.70;52.20
18126;DHT22;53956;52.442;13.284;2023-02-28T08:13:44;14.60;52.60
18126;DHT22;53956;52.442;13.284;2023-02-28T08:16:11;14.70;52.80
18126;DHT22;53956;52.442;13.284;2023-02-28T08:18:39;14.90;51.70
18126;DHT22;53956;52.442;13.284;2023-02-28T08:21:06;14.40;52.50
18126;DHT22;53956;52.442;13.284;2023-02-28T08:23:33;13.30;50.10
18126;DHT22;53956;52.442;13.284;2023-02-28T08:26:02;12.40;54.30
18126;DHT22;53956;52.442;13.284;2023-02-28T08:28:29;11.50;53.80
18126;DHT22;53956;52.442;13.284;2023-02-28T08:30:56;11.10;55.60
18126;DHT22;53956;52.442;13.284;2023-02-28T08:33:23;11.60;54.60
18126;DHT22;53956;52.442;13.284;2023-02-28T08:35:53;12.00;55.70
18126;DHT22;53956;52.442;13.284;2023-02-28T08:38:20;11.80;55.30
18126;DHT22;53956;52.442;13.284;2023-02-28T08:40:47;12.00;54.80
18126;DHT22;53956;52.442;13.284;2023-02-28T08:43:15;12.00;51.90
18126;DHT22;53956;52.442;13.284;2023-02-28T08:45:42;11.00;53.60
18126;DHT22;53956;52.442;13.284;2023-02-28T08:48:08;11.40;53.90
18126;DHT22;53956;52.442;13.284;2023-02-28T08:50:35;10.70;53.20
18126;DHT22;53956;52.442;13.284;2023-02-28T08:53:02;11.00;53.50
18126;DHT22;53956;52.442;13.284;2023-02-28T08:55:29;10.90;52.80
18126;DHT22;53956;52.442;13.284;2023-02-28T08:57:55;11.10;53.40
18126;DHT22;53956;52.442;13.284;2023-02-28T09:00:25;11.70;54.50
18126;DHT22;53956;52.442;13.284;2023-02-28T09:02:51;11.60;52.40
18126;DHT22;53956;52.442;13.284;2023-02-28T09:05:18;11.70;51.20
18126;DHT22;53956;52.442;13.284;2023-02-28T09:07:45;10.80;52.80
18126;DHT22;53956;52.442;13.284;2023-02-28T09:10:11;11.40;53.70
18126;DHT22;53956;52.442;13.284;2023-02-28T09:12:38;11.30;54.10
18126;DHT22;53956;52.442;13.284;2023-02-28T09:15:06;11.60;54.70
18126;DHT22;53956;52.442;13.284;2023-02-28T09:17:34;11.00;53.10
18126;DHT22;53956;52.442;13.284;2023-02-28T09:20:01;9.80;53.70
18126;DHT22;53956;52.442;13.284;2023-02-28T09:22:27;9.60;55.50
18126;DHT22;53956;52.442;13.284;2023-02-28T09:24:54;9.90;55.80
18126;DHT22;53956;52.442;13.284;2023-02-28T09:27:21;10.10;54.30
18126;DHT22;53956;52.442;13.284;2023-02-28T09:29:48;10.00;55.40
18126;DHT22;53956;52.442;13.284;2023-02-28T09:32:14;9.70;55.50
18126;DHT22;53956;52.442;13.284;2023-02-28T09:34:44;9.30;56.00
18126;DHT22;53956;52.442;13.284;2023-02-28T09:37:11;8.90;56.70
18126;DHT22;53956;52.442;13.284;2023-02-28T09:39:37;9.00;56.80
18126;DHT22;53956;52.442;13.284;2023-02-28T09:42:04;9.10;57.50
18126;DHT22;53956;52.442;13.284;2023-02-28T09:44:35;9.30;57.10
18126;DHT22;53956;52.442;13.284;2023-02-28T09:47:10;9.40;57.10
18126;DHT22;53956;52.442;13.284;2023-02-28T09:49:41;9.50;56.70
18126;DHT22;53956;52.442;13.284;2023-02-28T09:52:13;9.40;56.40
18126;DHT22;53956;52.442;13.284;2023-02-28T09:54:41;9.50;57.60
18126;DHT22;53956;52.442;13.284;2023-02-28T09:57:14;9.30;56.00
18126;DHT22;53956;52.442;13.284;2023-02-28T09:59:51;9.50;58.10
18126;DHT22;53956;52.442;13.284;2023-02-28T10:02:39;9.50;57.20
18126;DHT22;53956;52.442;13.284;2023-02-28T10:05:11;9.30;56.40
18126;DHT22;53956;52.442;13.284;2023-02-28T10:07:56;9.20;57.90
18126;DHT22;53956;52.442;13.284;2023-02-28T10:10:27;9.00;57.40
18126;DHT22;53956;52.442;13.284;2023-02-28T10:12:57;9.20;58.10
18126;DHT22;53956;52.442;13.284;2023-02-28T10:15:27;9.60;58.00
18126;DHT22;53956;52.442;13.284;2023-02-28T10:17:59;9.20;57.70
18126;DHT22;53956;52.442;13.284;2023-02-28T10:20:27;9.30;57.10
18126;DHT22;53956;52.442;13.284;2023-02-28T10:23:02;9.30;56.90
18126;DHT22;53956;52.442;13.284;2023-02-28T10:25:34;9.40;56.40
18126;DHT22;53956;52.442;13.284;2023-02-28T10:28:08;9.40;57.00
18126;DHT22;53956;52.442;13.284;2023-02-28T10:30:38;9.00;57.20
18126;DHT22;53956;52.442;13.284;2023-02-28T10:33:05;8.90;56.00
18126;DHT22;53956;52.442;13.284;2023-02-28T10:35:32;9.00;57.10
18126;DHT22;53956;52.442;13.284;2023-02-28T10:38:02;8.90;57.30
18126;DHT22;53956;52.442;13.284;2023-02-28T10:40:36;8.70;57.40
18126;DHT22;53956;52.442;13.284;2023-02-28T10:43:04;9.10;57.80
18126;DHT22;53956;52.442;13.284;2023-02-28T10:45:32;9.30;57.30
18126;DHT22;53956;52.442;13.284;2023-02-28T10:48:03;8.90;56.50
18126;DHT22;53956;52.442;13.284;2023-02-28T10:50:35;9.10;57.20
18126;DHT22;53956;52.442;13.284;2023-02-28T10:53:33;8.60;56.30
18126;DHT22;53956;52.442;13.284;2023-02-28T10:56:03;8.30;58.10
18126;DHT22;53956;52.442;13.284;2023-02-28T10:58:32;9.10;58.20
18126;DHT22;53956;52.442;13.284;2023-02-28T11:01:14;9.40;57.90
18126;DHT22;53956;52.442;13.284;2023-02-28T11:03:41;9.50;57.50
18126;DHT22;53956;52.442;13.284;2023-02-28T11:06:14;9.10;56.00
18126;DHT22;53956;52.442;13.284;2023-02-28T11:08:48;8.90;57.80
18126;DHT22;53956;52.442;13.284;2023-02-28T11:11:16;9.20;58.40
18126;DHT22;53956;52.442;13.284;2023-02-28T11:13:44;9.00;56.90
18126;DHT22;53956;52.442;13.284;2023-02-28T11:16:12;8.90;57.60
18126;DHT22;53956;52.442;13.284;2023-02-28T11:18:43;9.10;58.50
18126;DHT22;53956;52.442;13.284;2023-02-28T11:21:18;9.10;57.40
18126;DHT22;53956;52.442;13.284;2023-02-28T11:23:47;9.00;57.40
18126;DHT22;53956;52.442;13.284;2023-02-28T11:26:16;9.30;58.10
18126;DHT22;53956;52.442;13.284;2023-02-28T11:29:09;9.30;56.90
18126;DHT22;53956;52.442;13.284;2023-02-28T11:31:36;9.30;57.90
18126;DHT22;53956;52.442;13.284;2023-02-28T11:34:23;9.40;57.60
18126;DHT22;53956;52.442;13.284;2023-02-28T11:36:50;9.40;56.90
18126;DHT22;53956;52.442;13.284;2023-02-28T11:39:19;9.40;58.00
18126;DHT22;53956;52.442;13.284;2023-02-28T11:42:01;9.50;57.80
18126;DHT22;53956;52.442;13.284;2023-02-28T11:44:40;9.40;57.00
18126;DHT22;53956;52.442;13.284;2023-02-28T11:47:14;8.90;58.30
18126;DHT22;53956;52.442;13.284;2023-02-28T11:49:49;8.90;58.20
18126;DHT22;53956;52.442;13.284;2023-02-28T11:52:29;9.30;58.40
18126;DHT22;53956;52.442;13.284;2023-02-28T11:55:07;9.40;57.40
18126;DHT22;53956;52.442;13.284;2023-02-28T11:57:55;9.60;58.60
18126;DHT22;53956;52.442;13.284;2023-02-28T12:00:36;9.70;56.50
18126;DHT22;53956;52.442;13.284;2023-02-28T12:03:15;9.70;57.60
18126;DHT22;53956;52.442;13.284;2023-02-28T12:05:46;9.80;58.10
18126;DHT22;53956;52.442;13.284;2023-02-28T12:08:26;9.80;56.50
18126;DHT22;53956;52.442;13.284;2023-02-28T12:11:04;9.70;57.90
18126;DHT22;53956;52.442;13.284;2023-02-28T12:13:41;9.50;56.60
18126;DHT22;53956;52.442;13.284;2023-02-28T12:16:36;9.60;57.30
18126;DHT22;53956;52.442;13.284;2023-02-28T12:19:17;9.40;56.80
18126;DHT22;53956;52.442;13.284;2023-02-28T12:24:53;9.20;56.70
18126;DHT22;53956;52.442;13.284;2023-02-28T12:27:26;9.00;57.10
18126;DHT22;53956;52.442;13.284;2023-02-28T12:29:58;8.80;57.70
18126;DHT22;53956;52.442;13.284;2023-02-28T12:32:31;8.70;57.30
18126;DHT22;53956;52.442;13.284;2023-02-28T12:35:02;8.80;57.10
18126;DHT22;53956;52.442;13.284;2023-02-28T12:37:34;9.10;57.10
18126;DHT22;53956;52.442;13.284;2023-02-28T12:40:09;9.00;56.60
18126;DHT22;53956;52.442;13.284;2023-02-28T12:42:41;8.90;56.90
18126;DHT22;53956;52.442;13.284;2023-02-28T12:45:12;8.70;57.70
18126;DHT22;53956;52.442;13.284;2023-02-28T12:47:44;8.70;57.50
18126;DHT22;53956;52.442;13.284;2023-02-28T12:50:14;8.80;57.60
18126;DHT22;53956;52.442;13.284;2023-02-28T12:52:48;9.20;57.30
18126;DHT22;53956;52.442;13.284;2023-02-28T12:55:23;9.00;57.20
18126;DHT22;53956;52.442;13.284;2023-02-28T12:57:59;9.20;58.30
18126;DHT22;53956;52.442;13.284;2023-02-28T13:00:35;9.10;57.50
18126;DHT22;53956;52.442;13.284;2023-02-28T13:03:26;9.20;57.00
18126;DHT22;53956;52.442;13.284;2023-02-28T13:06:23;9.20;57.70
18126;DHT22;53956;52.442;13.284;2023-02-28T13:09:09;9.30;57.70
18126;DHT22;53956;52.442;13.284;2023-02-28T13:11:40;9.50;57.20
18126;DHT22;53956;52.442;13.284;2023-02-28T13:14:22;9.50;57.10
18126;DHT22;53956;52.442;13.284;2023-02-28T13:16:55;8.80;56.90
18126;DHT22;53956;52.442;13.284;2023-02-28T13:19:23;8.90;58.20
18126;DHT22;53956;52.442;13.284;2023-02-28T13:21:50;9.20;58.90
18126;DHT22;53956;52.442;13.284;2023-02-28T13:24:40;9.00;56.90
18126;DHT22;53956;52.442;13.284;2023-02-28T13:32:43;9.10;57.50
18126;DHT22;53956;52.442;13.284;2023-02-28T13:35:15;9.10;57.20
18126;DHT22;53956;52.442;13.284;2023-02-28T13:38:17;9.00;57.30
18126;DHT22;53956;52.442;13.284;2023-02-28T13:40:47;9.30;58.30
18126;DHT22;53956;52.442;13.284;2023-02-28T13:43:17;9.00;58.10
18126;DHT22;53956;52.442;13.284;2023-02-28T13:46:11;9.20;58.00
18126;DHT22;53956;52.442;13.284;2023-02-28T13:48:38;9.30;58.00
18126;DHT22;53956;52.442;13.284;2023-02-28T13:51:28;9.40;59.00
18126;DHT22;53956;52.442;13.284;2023-02-28T13:54:16;9.30;57.40
18126;DHT22;53956;52.442;13.284;2023-02-28T13:56:49;9.20;57.90
18126;DHT22;53956;52.442;13.284;2023-02-28T13:59:25;9.00;58.10
18126;DHT22;53956;52.442;13.284;2023-02-28T14:02:20;9.30;58.50
18126;DHT22;53956;52.442;13.284;2023-02-28T14:05:02;9.50;58.10
18126;DHT22;53956;52.442;13.284;2023-02-28T14:07:36;9.40;57.30
18126;DHT22;53956;52.442;13.284;2023-02-28T14:10:06;9.50;57.70
18126;DHT22;53956;52.442;13.284;2023-02-28T14:12:53;9.40;57.10
18126;DHT22;53956;52.442;13.284;2023-02-28T14:15:39;9.20;56.90
18126;DHT22;53956;52.442;13.284;2023-02-28T14:18:16;9.30;57.80
18126;DHT22;53956;52.442;13.284;2023-02-28T14:20:45;9.20;57.10
18126;DHT22;53956;52.442;13.284;2023-02-28T14:23:20;9.30;56.70
18126;DHT22;53956;52.442;13.284;2023-02-28T14:25:58;9.00;57.00
18126;DHT22;53956;52.442;13.284;2023-02-28T14:28:42;9.20;56.90
18126;DHT22;53956;52.442;13.284;2023-02-28T14:31:13;9.30;56.90
18126;DHT22;53956;52.442;13.284;2023-02-28T14:36:36;9.30;57.00
18126;DHT22;53956;52.442;13.284;2023-02-28T14:39:06;9.10;57.40
18126;DHT22;53956;52.442;13.284;2023-02-28T14:41:35;9.10;58.10
18126;DHT22;53956;52.442;13.284;2023-02-28T14:44:13;9.20;58.70
18126;DHT22;53956;52.442;13.284;2023-02-28T14:46:42;9.10;57.50
18126;DHT22;53956;52.442;13.284;2023-02-28T14:49:16;9.20;58.10
18126;DHT22;53956;52.442;13.284;2023-02-28T14:51:44;9.50;58.40
18126;DHT22;53956;52.442;13.284;2023-02-28T14:54:15;9.40;58.20
18126;DHT22;53956;52.442;13.284;2023-02-28T14:56:42;9.20;56.90
18126;DHT22;53956;52.442;13.284;2023-02-28T14:59:25;9.40;57.50
18126;DHT22;53956;52.442;13.284;2023-02-28T15:01:53;9.50;58.20
18126;DHT22;53956;52.442;13.284;2023-02-28T15:04:33;9.50;58.20
18126;DHT22;53956;52.442;13.284;2023-02-28T15:07:14;9.20;57.00
18126;DHT22;53956;52.442;13.284;2023-02-28T15:09:41;9.00;57.80
18126;DHT22;53956;52.442;13.284;2023-02-28T15:12:13;9.00;57.50
18126;DHT22;53956;52.442;13.284;2023-02-28T15:14:42;9.10;58.30
18126;DHT22;53956;52.442;13.284;2023-02-28T15:17:20;9.20;58.30
18126;DHT22;53956;52.442;13.284;2023-02-28T15:19:51;9.10;57.40
18126;DHT22;53956;52.442;13.284;2023-02-28T15:22:26;8.90;58.40
18126;DHT22;53956;52.442;13.284;2023-02-28T15:24:55;9.10;58.00
18126;DHT22;53956;52.442;13.284;2023-02-28T15:27:25;9.20;58.30
18126;DHT22;53956;52.442;13.284;2023-02-28T15:29:55;9.30;58.60
18126;DHT22;53956;52.442;13.284;2023-02-28T15:32:28;9.50;58.90
18126;DHT22;53956;52.442;13.284;2023-02-28T15:34:56;9.30;58.50
18126;DHT22;53956;52.442;13.284;2023-02-28T15:37:40;9.40;57.50
18126;DHT22;53956;52.442;13.284;2023-02-28T15:40:17;9.30;58.00
18126;DHT22;53956;52.442;13.284;2023-02-28T15:43:03;9.30;58.60
18126;DHT22;53956;52.442;13.284;2023-02-28T15:45:37;9.20;57.80
18126;DHT22;53956;52.442;13.284;2023-02-28T15:48:15;9.00;57.90
18126;DHT22;53956;52.442;13.284;2023-02-28T15:50:42;9.20;57.60
18126;DHT22;53956;52.442;13.284;2023-02-28T15:53:15;9.20;58.10
18126;DHT22;53956;52.442;13.284;2023-02-28T15:55:42;9.00;58.10
18126;DHT22;53956;52.442;13.284;2023-02-28T15:58:11;9.00;58.10
18126;DHT22;53956;52.442;13.284;2023-02-28T16:00:39;9.10;59.20
18126;DHT22;53956;52.442;13.284;2023-02-28T16:03:26;9.10;58.80
18126;DHT22;53956;52.442;13.284;2023-02-28T16:06:20;9.10;58.60
18126;DHT22;53956;52.442;13.284;2023-02-28T16:08:50;9.30;63.40